In Rescue
 
Open Full Screen Window  High Contrast Mode
March 01, 2024 4:50 PM EST
Present Weather: Light Rain
Weather Information
Wind Direction
  ---
Wind Speed
  00 kt (0 mph)
Wind Gust
  00 kt (0 mph)
Altimeter
30.20 in
Visibility
1 1/4 SM
Temperature
05° C
41° F
Dewpoint
05° C
41° F
Humidity
100%
Sky Condition
Overcast @ 2,300 ft
Broken @ 1,700 ft
Few @ 600 ft
IFR

METAR KSYM 012150Z AUTO 00000KT 1 1/4SM -RA FEW006 BKN017 OVC023 05/05 A3020 RMK AO2

FAA Disclaimer: The data displayed is for advisory purposes only and is not to be used for flight planning or operations.